sensor_id;sensor_type;location;lat;lon;timestamp;pressure;altitude;pressure_sealevel;temperature;humidity
21401;BME280;18038;50.166;18.908;2023-07-31T00:04:23;97621.94;;;14.02;90.83
21401;BME280;18038;50.166;18.908;2023-07-31T00:07:33;97614.91;;;14.20;89.86
21401;BME280;18038;50.166;18.908;2023-07-31T00:10:42;97622.81;;;14.45;88.63
21401;BME280;18038;50.166;18.908;2023-07-31T01:08:31;97639.47;;;15.83;75.81
21401;BME280;18038;50.166;18.908;2023-07-31T01:11:51;97632.69;;;15.81;75.96
21401;BME280;18038;50.166;18.908;2023-07-31T01:15:06;97626.25;;;15.70;75.90
21401;BME280;18038;50.166;18.908;2023-07-31T01:18:17;97640.81;;;15.57;75.99
21401;BME280;18038;50.166;18.908;2023-07-31T01:21:57;97637.53;;;15.55;76.37
21401;BME280;18038;50.166;18.908;2023-07-31T01:25:44;97642.44;;;15.46;76.21
21401;BME280;18038;50.166;18.908;2023-07-31T01:29:03;97636.50;;;15.32;76.87
21401;BME280;18038;50.166;18.908;2023-07-31T01:32:19;97651.50;;;15.28;77.47
21401;BME280;18038;50.166;18.908;2023-07-31T01:35:29;97651.47;;;15.05;77.87
21401;BME280;18038;50.166;18.908;2023-07-31T01:38:39;97652.88;;;15.19;77.91
21401;BME280;18038;50.166;18.908;2023-07-31T01:41:50;97647.94;;;14.93;79.13
21401;BME280;18038;50.166;18.908;2023-07-31T02:04:26;97655.56;;;13.68;85.51
21401;BME280;18038;50.166;18.908;2023-07-31T02:07:36;97648.72;;;13.54;86.00
21401;BME280;18038;50.166;18.908;2023-07-31T02:10:44;97645.44;;;13.70;85.71
21401;BME280;18038;50.166;18.908;2023-07-31T02:13:54;97653.72;;;13.87;85.16
21401;BME280;18038;50.166;18.908;2023-07-31T02:17:02;97649.75;;;14.08;83.47
21401;BME280;18038;50.166;18.908;2023-07-31T02:20:14;97653.69;;;14.24;82.72
21401;BME280;18038;50.166;18.908;2023-07-31T02:23:23;97655.47;;;14.30;81.66
21401;BME280;18038;50.166;18.908;2023-07-31T02:26:32;97650.72;;;14.44;80.88
21401;BME280;18038;50.166;18.908;2023-07-31T02:29:41;97652.69;;;14.79;79.57
21401;BME280;18038;50.166;18.908;2023-07-31T02:32:51;97661.09;;;14.82;79.82
21401;BME280;18038;50.166;18.908;2023-07-31T02:36:03;97667.28;;;14.71;79.92
21401;BME280;18038;50.166;18.908;2023-07-31T02:39:12;97669.97;;;14.71;79.61
21401;BME280;18038;50.166;18.908;2023-07-31T04:04:11;97718.44;;;12.85;86.18
21401;BME280;18038;50.166;18.908;2023-07-31T04:07:21;97726.19;;;13.19;86.10
21401;BME280;18038;50.166;18.908;2023-07-31T04:10:32;97724.06;;;13.52;83.26
21401;BME280;18038;50.166;18.908;2023-07-31T04:13:41;97726.63;;;13.84;82.29
21401;BME280;18038;50.166;18.908;2023-07-31T04:16:50;97726.66;;;14.21;80.13
21401;BME280;18038;50.166;18.908;2023-07-31T04:20:02;97722.94;;;14.82;77.17
21401;BME280;18038;50.166;18.908;2023-07-31T04:23:11;97720.84;;;15.26;74.38
21401;BME280;18038;50.166;18.908;2023-07-31T04:26:21;97717.09;;;15.51;73.56
21401;BME280;18038;50.166;18.908;2023-07-31T04:29:29;97724.47;;;15.67;72.49
21401;BME280;18038;50.166;18.908;2023-07-31T04:32:39;97730.81;;;15.73;71.66
21401;BME280;18038;50.166;18.908;2023-07-31T04:35:54;97734.44;;;15.78;71.43
21401;BME280;18038;50.166;18.908;2023-07-31T04:39:03;97729.28;;;15.77;70.87
21401;BME280;18038;50.166;18.908;2023-07-31T10:04:27;97740.22;;;22.76;39.74
21401;BME280;18038;50.166;18.908;2023-07-31T10:07:39;97728.03;;;22.63;38.65
21401;BME280;18038;50.166;18.908;2023-07-31T10:10:51;97731.25;;;22.70;38.31
21401;BME280;18038;50.166;18.908;2023-07-31T10:14:02;97728.22;;;23.85;36.95
21401;BME280;18038;50.166;18.908;2023-07-31T10:17:13;97729.69;;;24.92;35.91
21401;BME280;18038;50.166;18.908;2023-07-31T10:20:28;97726.97;;;24.49;35.32
21401;BME280;18038;50.166;18.908;2023-07-31T10:23:39;97735.19;;;24.87;34.68
21401;BME280;18038;50.166;18.908;2023-07-31T10:26:53;97722.59;;;24.91;34.53
21401;BME280;18038;50.166;18.908;2023-07-31T10:30:11;97714.94;;;24.69;34.41
21401;BME280;18038;50.166;18.908;2023-07-31T10:33:25;97710.66;;;25.20;33.84
21401;BME280;18038;50.166;18.908;2023-07-31T10:36:38;97704.06;;;25.73;33.17
21401;BME280;18038;50.166;18.908;2023-07-31T10:39:57;97704.97;;;25.68;33.57
21401;BME280;18038;50.166;18.908;2023-07-31T12:04:24;97650.22;;;23.60;34.63
21401;BME280;18038;50.166;18.908;2023-07-31T12:07:48;97639.53;;;23.69;35.20
21401;BME280;18038;50.166;18.908;2023-07-31T12:11:04;97646.13;;;24.11;34.66
21401;BME280;18038;50.166;18.908;2023-07-31T12:14:20;97635.97;;;23.92;35.09
21401;BME280;18038;50.166;18.908;2023-07-31T12:17:33;97636.00;;;24.35;34.03
21401;BME280;18038;50.166;18.908;2023-07-31T12:20:47;97627.81;;;23.92;35.35
21401;BME280;18038;50.166;18.908;2023-07-31T12:23:57;97628.00;;;24.20;35.73
21401;BME280;18038;50.166;18.908;2023-07-31T12:27:10;97623.84;;;24.22;34.75
21401;BME280;18038;50.166;18.908;2023-07-31T12:30:29;97618.19;;;24.19;35.60
21401;BME280;18038;50.166;18.908;2023-07-31T12:33:41;97621.03;;;24.08;36.28
21401;BME280;18038;50.166;18.908;2023-07-31T12:36:53;97611.59;;;24.01;35.10
21401;BME280;18038;50.166;18.908;2023-07-31T12:40:03;97606.19;;;24.20;35.13
21401;BME280;18038;50.166;18.908;2023-07-31T14:04:26;97538.81;;;21.07;41.71
21401;BME280;18038;50.166;18.908;2023-07-31T14:07:36;97545.00;;;21.33;40.28
21401;BME280;18038;50.166;18.908;2023-07-31T14:10:51;97543.06;;;21.43;40.08
21401;BME280;18038;50.166;18.908;2023-07-31T14:14:01;97549.59;;;21.48;39.79
21401;BME280;18038;50.166;18.908;2023-07-31T14:17:10;97554.44;;;21.66;39.61
21401;BME280;18038;50.166;18.908;2023-07-31T14:20:22;97558.13;;;21.91;39.28
21401;BME280;18038;50.166;18.908;2023-07-31T14:23:31;97553.22;;;21.93;38.63
21401;BME280;18038;50.166;18.908;2023-07-31T14:26:40;97555.41;;;21.91;39.56
21401;BME280;18038;50.166;18.908;2023-07-31T14:29:49;97548.16;;;21.71;39.47
21401;BME280;18038;50.166;18.908;2023-07-31T14:32:58;97555.97;;;21.87;39.81
21401;BME280;18038;50.166;18.908;2023-07-31T14:36:10;97559.56;;;21.73;39.96
21401;BME280;18038;50.166;18.908;2023-07-31T14:39:19;97559.91;;;21.45;40.22
21401;BME280;18038;50.166;18.908;2023-07-31T16:04:13;97495.09;;;19.90;47.35
21401;BME280;18038;50.166;18.908;2023-07-31T16:07:23;97490.28;;;20.08;46.07
21401;BME280;18038;50.166;18.908;2023-07-31T16:10:33;97495.72;;;20.28;45.67
21401;BME280;18038;50.166;18.908;2023-07-31T16:13:43;97492.75;;;20.45;45.43
21401;BME280;18038;50.166;18.908;2023-07-31T16:16:51;97487.03;;;20.67;45.12
21401;BME280;18038;50.166;18.908;2023-07-31T16:20:05;97482.41;;;20.88;45.07
21401;BME280;18038;50.166;18.908;2023-07-31T16:23:14;97484.25;;;21.08;43.58
21401;BME280;18038;50.166;18.908;2023-07-31T16:26:23;97479.34;;;21.15;43.62
21401;BME280;18038;50.166;18.908;2023-07-31T16:29:32;97477.13;;;21.33;42.96
21401;BME280;18038;50.166;18.908;2023-07-31T16:32:41;97481.13;;;21.45;42.84
21401;BME280;18038;50.166;18.908;2023-07-31T16:35:54;97482.16;;;21.60;42.41
21401;BME280;18038;50.166;18.908;2023-07-31T16:39:07;97474.03;;;21.60;42.72
21401;BME280;18038;50.166;18.908;2023-07-31T18:04:16;97466.09;;;17.95;55.23
21401;BME280;18038;50.166;18.908;2023-07-31T18:07:25;97465.06;;;18.02;54.14
21401;BME280;18038;50.166;18.908;2023-07-31T18:10:34;97469.34;;;18.30;53.36
21401;BME280;18038;50.166;18.908;2023-07-31T18:13:52;97433.16;;;18.36;52.21
21401;BME280;18038;50.166;18.908;2023-07-31T18:17:02;97475.97;;;18.87;52.01
21401;BME280;18038;50.166;18.908;2023-07-31T18:20:14;97480.41;;;19.03;51.39
21401;BME280;18038;50.166;18.908;2023-07-31T18:23:24;97479.66;;;19.18;51.27
21401;BME280;18038;50.166;18.908;2023-07-31T18:26:34;97481.56;;;19.17;50.88
21401;BME280;18038;50.166;18.908;2023-07-31T18:29:43;97480.59;;;19.34;50.66
21401;BME280;18038;50.166;18.908;2023-07-31T18:32:52;97476.00;;;19.39;50.42
21401;BME280;18038;50.166;18.908;2023-07-31T18:36:05;97464.34;;;19.39;50.44
21401;BME280;18038;50.166;18.908;2023-07-31T18:39:14;97470.84;;;19.43;50.32
21401;BME280;18038;50.166;18.908;2023-07-31T22:04:22;97340.38;;;13.83;75.06
21401;BME280;18038;50.166;18.908;2023-07-31T22:07:32;97335.63;;;13.96;74.70
21401;BME280;18038;50.166;18.908;2023-07-31T22:10:40;97326.97;;;14.18;73.89
21401;BME280;18038;50.166;18.908;2023-07-31T22:13:50;97338.50;;;14.42;72.47
21401;BME280;18038;50.166;18.908;2023-07-31T22:16:58;97346.88;;;14.57;72.11
21401;BME280;18038;50.166;18.908;2023-07-31T22:20:12;97341.25;;;14.71;71.59
21401;BME280;18038;50.166;18.908;2023-07-31T22:23:21;97339.59;;;14.81;70.78
21401;BME280;18038;50.166;18.908;2023-07-31T22:26:30;97334.06;;;14.88;70.43
21401;BME280;18038;50.166;18.908;2023-07-31T22:29:39;97335.19;;;15.04;70.21
21401;BME280;18038;50.166;18.908;2023-07-31T22:32:49;97326.28;;;15.15;69.55
21401;BME280;18038;50.166;18.908;2023-07-31T22:35:59;97323.69;;;15.20;68.98
21401;BME280;18038;50.166;18.908;2023-07-31T22:39:09;97319.94;;;15.21;68.97
